Time,TemperatureF,DewpointF,PressureIn,WindDirection,WindDirectionDegrees,WindSpeedMPH,WindSpeedGustMPH,Humidity,HourlyPrecipIn,Conditions,Clouds,dailyrainin,SolarRadiationWatts/m^2,SoftwareType,DateUTC
2013-05-18 00:01:00,53.8,43.1,30.19,ESE,121,0.0,0.0,67,0.00,,,0.00,0,Wunderground v.1.15,2013-05-18 04:01:00,
2013-05-18 00:02:00,53.7,43.0,30.19,ESE,121,0.0,0.0,67,0.00,,,0.00,0,Wunderground v.1.15,2013-05-18 04:02:00,
2013-05-18 00:04:00,53.7,43.0,30.19,ESE,121,0.0,0.0,67,0.00,,,0.00,0,Wunderground v.1.15,2013-05-18 04:04:00,
2013-05-18 00:09:00,53.3,43.0,30.19,ESE,121,0.0,0.0,68,0.00,,,0.00,0,Wunderground v.1.15,2013-05-18 04:09:00,
2013-05-18 00:11:00,53.1,42.8,30.19,ESE,121,0.0,0.0,68,0.00,,,0.00,0,Wunderground v.1.15,2013-05-18 04:11:00,
2013-05-18 00:15:00,52.9,42.6,30.19,ESE,121,0.0,0.0,68,0.00,,,0.00,0,Wunderground v.1.15,2013-05-18 04:15:00,
2013-05-18 00:21:00,52.7,42.4,30.20,ESE,121,0.0,0.0,68,0.00,,,0.00,0,Wunderground v.1.15,2013-05-18 04:21:00,
2013-05-18 00:26:00,52.7,42.4,30.19,ESE,121,0.0,0.0,68,0.00,,,0.00,0,Wunderground v.1.15,2013-05-18 04:26:00,
2013-05-18 00:32:00,52.4,42.5,30.20,ESE,121,0.0,0.0,69,0.00,,,0.00,0,Wunderground v.1.15,2013-05-18 04:32:00,
2013-05-18 00:37:00,52.2,42.3,30.19,ESE,121,0.0,0.0,69,0.00,,,0.00,0,Wunderground v.1.15,2013-05-18 04:37:00,
2013-05-18 00:42:00,52.2,42.3,30.19,ESE,121,0.0,0.0,69,0.00,,,0.00,0,Wunderground v.1.15,2013-05-18 04:42:00,
2013-05-18 00:47:00,52.4,42.5,30.19,ESE,121,0.0,0.0,69,0.00,,,0.00,0,Wunderground v.1.15,2013-05-18 04:47:00,
2013-05-18 00:54:00,52.6,42.7,30.20,ESE,121,0.0,0.0,69,0.00,,,0.00,0,Wunderground v.1.15,2013-05-18 04:54:00,
2013-05-18 00:59:00,52.7,43.2,30.20,ESE,121,0.0,0.0,70,0.00,,,0.00,0,Wunderground v.1.15,2013-05-18 04:59:00,
2013-05-18 01:05:00,52.6,43.1,30.20,ESE,120,0.0,0.0,70,0.00,,,0.00,0,Wunderground v.1.15,2013-05-18 05:05:00,
2013-05-18 01:10:00,52.4,42.9,30.20,ESE,121,0.0,0.0,70,0.00,,,0.00,0,Wunderground v.1.15,2013-05-18 05:10:00,
2013-05-18 01:15:00,52.3,42.8,30.20,ESE,121,0.0,0.0,70,0.00,,,0.00,0,Wunderground v.1.15,2013-05-18 05:15:00,
2013-05-18 01:21:00,52.0,42.5,30.20,ESE,121,0.0,0.0,70,0.00,,,0.00,0,Wunderground v.1.15,2013-05-18 05:21:00,
2013-05-18 01:26:00,51.8,42.3,30.20,ESE,121,0.0,0.0,70,0.00,,,0.00,0,Wunderground v.1.15,2013-05-18 05:26:00,
2013-05-18 01:32:00,51.5,42.0,30.20,ESE,120,0.0,0.0,70,0.00,,,0.00,0,Wunderground v.1.15,2013-05-18 05:32:00,
2013-05-18 01:37:00,51.3,42.2,30.20,ESE,121,0.0,0.0,71,0.00,,,0.00,0,Wunderground v.1.15,2013-05-18 05:37:00,
2013-05-18 01:44:00,50.9,41.8,30.20,ESE,121,0.0,0.0,71,0.00,,,0.00,0,Wunderground v.1.15,2013-05-18 05:44:00,
2013-05-18 01:49:00,50.7,42.0,30.20,ESE,121,0.0,0.0,72,0.00,,,0.00,0,Wunderground v.1.15,2013-05-18 05:49:00,
2013-05-18 01:54:00,50.6,41.9,30.20,ESE,121,0.0,0.0,72,0.00,,,0.00,0,Wunderground v.1.15,2013-05-18 05:54:00,
2013-05-18 02:00:00,50.4,41.7,30.20,ESE,121,0.0,0.0,72,0.00,,,0.00,0,Wunderground v.1.15,2013-05-18 06:00:00,
2013-05-18 02:05:00,50.2,41.9,30.19,ESE,120,0.0,0.0,73,0.00,,,0.00,0,Wunderground v.1.15,2013-05-18 06:05:00,
2013-05-18 02:10:00,50.1,41.8,30.19,ESE,121,0.0,0.0,73,0.00,,,0.00,0,Wunderground v.1.15,2013-05-18 06:10:00,
2013-05-18 02:15:00,49.9,41.6,30.19,ESE,121,0.0,0.0,73,0.00,,,0.00,0,Wunderground v.1.15,2013-05-18 06:15:00,
2013-05-18 02:20:00,49.8,41.8,30.20,ESE,121,0.0,0.0,74,0.00,,,0.00,0,Wunderground v.1.15,2013-05-18 06:20:00,
2013-05-18 02:25:00,49.9,42.3,30.20,ESE,121,0.0,0.0,75,0.00,,,0.00,0,Wunderground v.1.15,2013-05-18 06:25:00,
2013-05-18 02:30:00,50.1,42.5,30.20,ESE,121,0.0,0.0,75,0.00,,,0.00,0,Wunderground v.1.15,2013-05-18 06:30:00,
2013-05-18 02:35:00,50.2,42.6,30.20,ESE,121,0.0,0.0,75,0.00,,,0.00,0,Wunderground v.1.15,2013-05-18 06:35:00,
2013-05-18 02:40:00,50.3,42.7,30.20,ESE,121,0.0,0.0,75,0.00,,,0.00,0,Wunderground v.1.15,2013-05-18 06:40:00,
2013-05-18 02:45:00,50.4,42.8,30.20,ESE,121,0.0,0.0,75,0.00,,,0.00,0,Wunderground v.1.15,2013-05-18 06:45:00,
2013-05-18 02:50:00,50.4,42.8,30.19,ESE,121,0.0,0.0,75,0.00,,,0.00,0,Wunderground v.1.15,2013-05-18 06:50:00,
2013-05-18 02:55:00,50.4,43.1,30.19,ESE,121,0.0,0.0,76,0.00,,,0.00,0,Wunderground v.1.15,2013-05-18 06:55:00,
2013-05-18 03:00:00,50.6,43.3,30.19,ESE,121,0.0,0.0,76,0.00,,,0.00,0,Wunderground v.1.15,2013-05-18 07:00:00,
2013-05-18 03:05:00,50.9,43.6,30.20,ESE,121,0.0,0.0,76,0.00,,,0.00,0,Wunderground v.1.15,2013-05-18 07:05:00,
2013-05-18 03:10:00,51.0,43.7,30.20,ESE,121,0.0,0.0,76,0.00,,,0.00,0,Wunderground v.1.15,2013-05-18 07:10:00,
2013-05-18 03:15:00,51.2,43.9,30.20,ESE,121,0.0,0.0,76,0.00,,,0.00,0,Wunderground v.1.15,2013-05-18 07:15:00,
2013-05-18 03:20:00,51.4,44.1,30.20,ESE,121,0.0,0.0,76,0.00,,,0.00,0,Wunderground v.1.15,2013-05-18 07:20:00,
2013-05-18 03:25:00,51.6,44.3,30.20,ESE,121,0.0,0.0,76,0.00,,,0.00,0,Wunderground v.1.15,2013-05-18 07:25:00,
2013-05-18 03:30:00,51.6,44.3,30.21,ESE,121,0.0,0.0,76,0.00,,,0.00,0,Wunderground v.1.15,2013-05-18 07:30:00,
2013-05-18 03:35:00,51.9,44.6,30.20,ESE,121,0.0,0.0,76,0.00,,,0.00,0,Wunderground v.1.15,2013-05-18 07:35:00,
2013-05-18 03:40:00,52.0,44.3,30.20,ESE,121,0.0,0.0,75,0.00,,,0.00,0,Wunderground v.1.15,2013-05-18 07:40:00,
2013-05-18 03:45:00,52.2,44.5,30.21,ESE,121,0.0,0.0,75,0.00,,,0.00,0,Wunderground v.1.15,2013-05-18 07:45:00,
2013-05-18 03:50:00,52.4,44.7,30.21,ESE,121,0.0,0.0,75,0.00,,,0.00,0,Wunderground v.1.15,2013-05-18 07:50:00,
2013-05-18 03:55:00,52.4,44.7,30.22,ESE,121,0.0,0.0,75,0.00,,,0.00,0,Wunderground v.1.15,2013-05-18 07:55:00,
2013-05-18 04:00:00,52.4,44.7,30.22,ESE,121,0.0,0.0,75,0.00,,,0.00,0,Wunderground v.1.15,2013-05-18 08:00:00,
2013-05-18 04:05:00,52.4,44.7,30.22,ESE,120,0.0,0.0,75,0.00,,,0.00,0,Wunderground v.1.15,2013-05-18 08:05:00,
2013-05-18 04:10:00,52.3,44.6,30.22,ESE,120,0.0,0.0,75,0.00,,,0.00,0,Wunderground v.1.15,2013-05-18 08:10:00,
2013-05-18 04:15:00,52.3,44.6,30.22,ESE,121,0.0,0.0,75,0.00,,,0.00,0,Wunderground v.1.15,2013-05-18 08:15:00,
2013-05-18 04:20:00,52.3,44.6,30.21,ESE,120,0.0,0.0,75,0.00,,,0.00,0,Wunderground v.1.15,2013-05-18 08:20:00,
2013-05-18 04:25:00,52.3,44.6,30.22,ESE,121,0.0,0.0,75,0.00,,,0.00,0,Wunderground v.1.15,2013-05-18 08:25:00,
2013-05-18 04:30:00,52.4,44.7,30.22,ESE,121,0.0,0.0,75,0.00,,,0.00,0,Wunderground v.1.15,2013-05-18 08:30:00,
2013-05-18 04:36:00,52.5,44.8,30.22,ESE,121,0.0,0.0,75,0.00,,,0.00,0,Wunderground v.1.15,2013-05-18 08:36:00,
2013-05-18 04:41:00,52.5,44.8,30.22,ESE,121,0.0,0.0,75,0.00,,,0.00,0,Wunderground v.1.15,2013-05-18 08:41:00,
2013-05-18 04:46:00,52.5,44.8,30.23,ESE,121,0.0,0.0,75,0.00,,,0.00,0,Wunderground v.1.15,2013-05-18 08:46:00,
2013-05-18 04:51:00,52.4,44.7,30.23,ESE,120,0.0,0.0,75,0.00,,,0.00,0,Wunderground v.1.15,2013-05-18 08:51:00,
2013-05-18 04:56:00,52.2,44.5,30.23,ESE,121,0.0,0.0,75,0.00,,,0.00,0,Wunderground v.1.15,2013-05-18 08:56:00,
2013-05-18 05:01:00,52.0,44.3,30.23,ESE,121,0.0,0.0,75,0.00,,,0.00,0,Wunderground v.1.15,2013-05-18 09:01:00,
2013-05-18 05:06:00,51.9,44.2,30.23,ESE,121,0.0,0.0,75,0.00,,,0.00,0,Wunderground v.1.15,2013-05-18 09:06:00,
2013-05-18 05:11:00,51.8,44.1,30.23,ESE,121,0.0,0.0,75,0.00,,,0.00,0,Wunderground v.1.15,2013-05-18 09:11:00,
2013-05-18 05:16:00,51.9,44.2,30.23,ESE,121,0.0,0.0,75,0.00,,,0.00,0,Wunderground v.1.15,2013-05-18 09:16:00,
2013-05-18 05:21:00,52.0,44.7,30.23,ESE,121,0.0,0.0,76,0.00,,,0.00,0,Wunderground v.1.15,2013-05-18 09:21:00,
2013-05-18 05:26:00,52.1,44.8,30.23,ESE,120,0.0,0.0,76,0.00,,,0.00,0,Wunderground v.1.15,2013-05-18 09:26:00,
2013-05-18 05:31:00,52.1,44.8,30.24,ESE,120,0.0,0.0,76,0.00,,,0.00,0,Wunderground v.1.15,2013-05-18 09:31:00,
2013-05-18 05:35:00,52.1,44.8,30.24,ESE,120,0.0,0.0,76,0.00,,,0.00,0,Wunderground v.1.15,2013-05-18 09:35:00,
2013-05-18 05:40:00,51.8,44.5,30.24,ESE,120,0.0,0.0,76,0.00,,,0.00,0,Wunderground v.1.15,2013-05-18 09:40:00,
2013-05-18 05:45:00,51.8,44.5,30.24,ESE,121,0.0,0.0,76,0.00,,,0.00,0,Wunderground v.1.15,2013-05-18 09:45:00,
2013-05-18 05:50:00,51.9,44.6,30.25,ESE,121,0.0,0.0,76,0.00,,,0.00,0,Wunderground v.1.15,2013-05-18 09:50:00,
2013-05-18 05:56:00,51.9,44.9,30.24,ESE,121,0.0,0.0,77,0.00,,,0.00,0,Wunderground v.1.15,2013-05-18 09:56:00,
2013-05-18 06:01:00,52.1,45.1,30.24,ESE,121,0.0,0.0,77,0.00,,,0.00,0,Wunderground v.1.15,2013-05-18 10:01:00,
2013-05-18 06:06:00,52.2,45.2,30.25,ESE,121,0.0,0.0,77,0.00,,,0.00,0,Wunderground v.1.15,2013-05-18 10:06:00,
2013-05-18 06:11:00,52.4,45.4,30.25,ESE,120,0.0,0.0,77,0.00,,,0.00,0,Wunderground v.1.15,2013-05-18 10:11:00,
2013-05-18 06:16:00,52.4,45.4,30.25,ESE,121,0.0,0.0,77,0.00,,,0.00,0,Wunderground v.1.15,2013-05-18 10:16:00,
2013-05-18 06:21:00,52.3,45.3,30.25,ESE,121,0.0,0.0,77,0.00,,,0.00,0,Wunderground v.1.15,2013-05-18 10:21:00,
2013-05-18 06:26:00,52.3,45.3,30.25,ESE,121,0.0,0.0,77,0.00,,,0.00,0,Wunderground v.1.15,2013-05-18 10:26:00,
2013-05-18 06:31:00,52.3,45.3,30.26,ESE,121,0.0,0.0,77,0.00,,,0.00,0,Wunderground v.1.15,2013-05-18 10:31:00,
2013-05-18 06:36:00,52.3,45.3,30.26,ESE,121,0.0,0.0,77,0.00,,,0.00,0,Wunderground v.1.15,2013-05-18 10:36:00,
2013-05-18 06:41:00,52.5,45.5,30.26,ESE,121,0.0,0.0,77,0.00,,,0.00,0,Wunderground v.1.15,2013-05-18 10:41:00,
2013-05-18 06:46:00,52.6,45.6,30.26,ESE,121,0.0,0.0,77,0.00,,,0.00,0,Wunderground v.1.15,2013-05-18 10:46:00,
2013-05-18 06:51:00,52.7,45.7,30.26,ESE,121,0.0,0.0,77,0.00,,,0.00,0,Wunderground v.1.15,2013-05-18 10:51:00,
2013-05-18 06:56:00,52.9,46.2,30.26,ESE,121,0.0,0.0,78,0.00,,,0.00,0,Wunderground v.1.15,2013-05-18 10:56:00,
2013-05-18 07:01:00,53.2,46.5,30.26,ESE,121,0.0,0.0,78,0.00,,,0.00,0,Wunderground v.1.15,2013-05-18 11:01:00,
2013-05-18 07:06:00,53.5,46.8,30.27,ESE,121,0.0,0.0,78,0.00,,,0.00,0,Wunderground v.1.15,2013-05-18 11:06:00,
2013-05-18 07:11:00,53.9,47.2,30.27,ESE,121,0.0,0.0,78,0.00,,,0.00,0,Wunderground v.1.15,2013-05-18 11:11:00,
2013-05-18 07:16:00,54.1,47.4,30.27,ESE,121,0.0,0.0,78,0.00,,,0.00,0,Wunderground v.1.15,2013-05-18 11:16:00,
2013-05-18 07:21:00,54.4,47.7,30.27,ESE,121,0.0,0.0,78,0.00,,,0.00,0,Wunderground v.1.15,2013-05-18 11:21:00,
2013-05-18 07:26:00,54.5,47.8,30.27,ESE,121,0.0,0.0,78,0.00,,,0.00,0,Wunderground v.1.15,2013-05-18 11:26:00,
2013-05-18 07:31:00,54.5,47.4,30.27,ESE,121,0.0,0.0,77,0.00,,,0.00,0,Wunderground v.1.15,2013-05-18 11:31:00,
2013-05-18 07:36:00,54.7,48.0,30.27,ESE,121,0.0,0.0,78,0.00,,,0.00,0,Wunderground v.1.15,2013-05-18 11:36:00,
2013-05-18 07:41:00,55.0,47.9,30.27,ESE,121,0.0,0.0,77,0.00,,,0.00,0,Wunderground v.1.15,2013-05-18 11:41:00,
2013-05-18 07:46:00,55.1,48.4,30.27,ESE,121,0.0,0.0,78,0.00,,,0.00,0,Wunderground v.1.15,2013-05-18 11:46:00,
2013-05-18 07:51:00,55.3,48.6,30.27,ESE,121,0.0,0.0,78,0.00,,,0.00,0,Wunderground v.1.15,2013-05-18 11:51:00,
2013-05-18 07:56:00,55.5,48.4,30.27,ESE,121,0.0,0.0,77,0.00,,,0.00,0,Wunderground v.1.15,2013-05-18 11:56:00,
2013-05-18 08:01:00,55.7,48.9,30.27,ESE,121,0.0,0.0,78,0.00,,,0.00,0,Wunderground v.1.15,2013-05-18 12:01:00,
2013-05-18 08:06:00,56.0,48.9,30.27,ESE,120,0.0,0.0,77,0.00,,,0.00,0,Wunderground v.1.15,2013-05-18 12:06:00,
2013-05-18 08:11:00,56.2,49.1,30.27,ESE,121,0.0,0.0,77,0.00,,,0.00,0,Wunderground v.1.15,2013-05-18 12:11:00,
2013-05-18 08:16:00,56.5,49.4,30.28,ESE,121,0.0,0.0,77,0.00,,,0.00,0,Wunderground v.1.15,2013-05-18 12:16:00,
2013-05-18 08:21:00,56.8,49.7,30.28,ESE,121,0.0,0.0,77,0.00,,,0.00,0,Wunderground v.1.15,2013-05-18 12:21:00,
2013-05-18 08:26:00,57.1,50.0,30.28,ESE,121,0.0,0.0,77,0.00,,,0.00,0,Wunderground v.1.15,2013-05-18 12:26:00,
2013-05-18 08:31:00,57.2,49.3,30.28,ESE,120,0.0,0.0,75,0.00,,,0.00,0,Wunderground v.1.15,2013-05-18 12:31:00,
2013-05-18 08:36:00,57.5,49.6,30.28,ESE,121,0.0,0.0,75,0.00,,,0.00,0,Wunderground v.1.15,2013-05-18 12:36:00,
2013-05-18 08:41:00,58.1,49.9,30.28,ESE,121,0.0,0.0,74,0.00,,,0.00,0,Wunderground v.1.15,2013-05-18 12:41:00,
2013-05-18 08:46:00,58.7,50.1,30.28,ESE,120,0.0,0.0,73,0.00,,,0.00,0,Wunderground v.1.15,2013-05-18 12:46:00,
2013-05-18 08:51:00,59.2,50.2,30.28,ESE,121,0.0,0.0,72,0.00,,,0.00,0,Wunderground v.1.15,2013-05-18 12:51:00,
2013-05-18 08:56:00,59.7,50.3,30.29,ESE,121,0.0,0.0,71,0.00,,,0.00,0,Wunderground v.1.15,2013-05-18 12:56:00,
2013-05-18 09:01:00,59.8,50.4,30.29,ESE,121,0.0,0.0,71,0.00,,,0.00,0,Wunderground v.1.15,2013-05-18 13:01:00,
2013-05-18 09:06:00,59.8,50.0,30.29,ESE,121,0.0,0.0,70,0.00,,,0.00,0,Wunderground v.1.15,2013-05-18 13:06:00,
2013-05-18 09:11:00,59.9,50.1,30.29,ESE,121,0.0,0.0,70,0.00,,,0.00,0,Wunderground v.1.15,2013-05-18 13:11:00,
2013-05-18 09:16:00,60.0,50.2,30.29,ESE,121,0.0,0.0,70,0.00,,,0.00,0,Wunderground v.1.15,2013-05-18 13:16:00,
2013-05-18 09:21:00,59.9,50.1,30.28,ESE,121,0.0,1.0,70,0.00,,,0.00,0,Wunderground v.1.15,2013-05-18 13:21:00,
2013-05-18 09:26:00,60.1,50.3,30.29,ESE,121,0.0,1.0,70,0.00,,,0.00,0,Wunderground v.1.15,2013-05-18 13:26:00,
2013-05-18 09:31:00,60.1,50.3,30.29,ESE,121,0.0,1.0,70,0.00,,,0.00,0,Wunderground v.1.15,2013-05-18 13:31:00,
2013-05-18 09:36:00,60.1,50.3,30.30,ESE,121,3.0,3.0,70,0.00,,,0.00,0,Wunderground v.1.15,2013-05-18 13:36:00,
2013-05-18 09:41:00,60.3,50.5,30.29,ESE,121,1.0,2.0,70,0.00,,,0.00,0,Wunderground v.1.15,2013-05-18 13:41:00,
2013-05-18 09:46:00,60.3,50.5,30.29,ESE,121,0.0,4.0,70,0.00,,,0.00,0,Wunderground v.1.15,2013-05-18 13:46:00,
2013-05-18 09:51:00,60.3,50.5,30.29,ESE,121,0.0,1.0,70,0.00,,,0.00,0,Wunderground v.1.15,2013-05-18 13:51:00,
2013-05-18 09:56:00,60.4,51.0,30.30,ESE,120,0.0,2.0,71,0.00,,,0.00,0,Wunderground v.1.15,2013-05-18 13:56:00,
2013-05-18 10:01:00,60.8,51.3,30.30,ESE,121,0.0,2.0,71,0.00,,,0.00,0,Wunderground v.1.15,2013-05-18 14:01:00,
2013-05-18 10:06:00,60.9,51.0,30.30,ESE,121,2.0,4.0,70,0.00,,,0.00,0,Wunderground v.1.15,2013-05-18 14:06:00,
2013-05-18 10:11:00,61.1,51.2,30.30,ESE,120,1.0,1.0,70,0.00,,,0.00,0,Wunderground v.1.15,2013-05-18 14:11:00,
2013-05-18 10:16:00,61.2,50.6,30.30,ESE,120,5.0,6.0,68,0.00,,,0.00,0,Wunderground v.1.15,2013-05-18 14:16:00,
2013-05-18 10:21:00,61.0,50.4,30.30,ESE,121,0.0,4.0,68,0.00,,,0.00,0,Wunderground v.1.15,2013-05-18 14:21:00,
2013-05-18 10:26:00,60.9,50.3,30.30,ESE,120,4.0,5.0,68,0.00,,,0.00,0,Wunderground v.1.15,2013-05-18 14:26:00,
2013-05-18 10:31:00,60.6,50.0,30.30,ESE,121,0.0,3.0,68,0.00,,,0.00,0,Wunderground v.1.15,2013-05-18 14:31:00,
2013-05-18 10:36:00,60.3,50.1,30.30,ESE,121,0.0,4.0,69,0.00,,,0.00,0,Wunderground v.1.15,2013-05-18 14:36:00,
2013-05-18 10:41:00,60.4,50.2,30.30,ESE,121,0.0,3.0,69,0.00,,,0.00,0,Wunderground v.1.15,2013-05-18 14:41:00,
2013-05-18 10:46:00,60.4,50.2,30.30,ESE,120,0.0,3.0,69,0.00,,,0.00,0,Wunderground v.1.15,2013-05-18 14:46:00,
2013-05-18 10:51:00,60.7,50.5,30.30,ESE,121,0.0,2.0,69,0.00,,,0.00,0,Wunderground v.1.15,2013-05-18 14:51:00,
2013-05-18 10:56:00,60.8,50.6,30.30,ESE,121,1.0,4.0,69,0.00,,,0.00,0,Wunderground v.1.15,2013-05-18 14:56:00,
2013-05-18 11:01:00,60.9,50.3,30.30,ESE,117,5.0,5.0,68,0.00,,,0.00,0,Wunderground v.1.15,2013-05-18 15:01:00,
2013-05-18 11:06:00,61.0,50.4,30.30,ESE,117,2.0,5.0,68,0.00,,,0.00,0,Wunderground v.1.15,2013-05-18 15:06:00,
2013-05-18 11:11:00,61.4,50.7,30.30,ESE,116,0.0,1.0,68,0.00,,,0.00,0,Wunderground v.1.15,2013-05-18 15:11:00,
2013-05-18 11:16:00,62.0,51.3,30.30,ESE,117,0.0,1.0,68,0.00,,,0.00,0,Wunderground v.1.15,2013-05-18 15:16:00,
2013-05-18 11:21:00,62.2,50.7,30.30,ESE,119,0.0,7.0,66,0.00,,,0.00,0,Wunderground v.1.15,2013-05-18 15:21:00,
2013-05-18 11:26:00,61.9,50.4,30.30,ESE,123,0.0,7.0,66,0.00,,,0.00,0,Wunderground v.1.15,2013-05-18 15:26:00,
2013-05-18 11:32:00,62.0,50.1,30.30,ESE,123,2.0,6.0,65,0.00,,,0.00,0,Wunderground v.1.15,2013-05-18 15:32:00,
2013-05-18 11:37:00,62.0,50.5,30.30,SE,138,5.0,7.0,66,0.00,,,0.00,0,Wunderground v.1.15,2013-05-18 15:37:00,
2013-05-18 11:42:00,61.9,50.4,30.30,SE,136,0.0,5.0,66,0.00,,,0.00,0,Wunderground v.1.15,2013-05-18 15:42:00,
2013-05-18 11:47:00,61.7,50.2,30.30,SE,130,1.0,6.0,66,0.00,,,0.00,0,Wunderground v.1.15,2013-05-18 15:47:00,
2013-05-18 11:52:00,61.6,50.5,30.30,ESE,115,5.0,6.0,67,0.00,,,0.00,0,Wunderground v.1.15,2013-05-18 15:52:00,
2013-05-18 11:57:00,61.8,50.7,30.30,ESE,104,0.0,6.0,67,0.00,,,0.00,0,Wunderground v.1.15,2013-05-18 15:57:00,
2013-05-18 12:02:00,61.7,50.6,30.29,ESE,107,4.0,5.0,67,0.00,,,0.00,0,Wunderground v.1.15,2013-05-18 16:02:00,
2013-05-18 12:07:00,61.6,50.5,30.28,ESE,116,2.0,8.0,67,0.00,,,0.00,0,Wunderground v.1.15,2013-05-18 16:07:00,
2013-05-18 12:12:00,61.8,50.7,30.29,ESE,102,0.0,5.0,67,0.00,,,0.00,0,Wunderground v.1.15,2013-05-18 16:12:00,
2013-05-18 12:17:00,62.2,51.1,30.29,ENE,77,4.0,7.0,67,0.00,,,0.00,0,Wunderground v.1.15,2013-05-18 16:17:00,
2013-05-18 12:22:00,62.4,51.3,30.29,SE,131,5.0,8.0,67,0.00,,,0.00,0,Wunderground v.1.15,2013-05-18 16:22:00,
2013-05-18 12:27:00,62.3,51.2,30.29,ESE,114,4.0,9.0,67,0.00,,,0.00,0,Wunderground v.1.15,2013-05-18 16:27:00,
2013-05-18 12:32:00,62.7,51.6,30.29,ESE,109,4.0,5.0,67,0.00,,,0.00,0,Wunderground v.1.15,2013-05-18 16:32:00,
2013-05-18 12:37:00,63.1,52.4,30.29,East,95,1.0,5.0,68,0.00,,,0.00,0,Wunderground v.1.15,2013-05-18 16:37:00,
2013-05-18 12:42:00,63.4,52.2,30.29,East,99,5.0,5.0,67,0.00,,,0.00,0,Wunderground v.1.15,2013-05-18 16:42:00,
2013-05-18 12:47:00,63.5,52.3,30.29,ESE,118,0.0,7.0,67,0.00,,,0.00,0,Wunderground v.1.15,2013-05-18 16:47:00,
2013-05-18 12:52:00,63.9,52.7,30.29,ESE,116,0.0,3.0,67,0.00,,,0.00,0,Wunderground v.1.15,2013-05-18 16:52:00,
2013-05-18 12:57:00,63.9,52.3,30.28,SE,130,1.0,7.0,66,0.00,,,0.00,0,Wunderground v.1.15,2013-05-18 16:57:00,
2013-05-18 13:02:00,63.9,51.9,30.28,ESE,120,2.0,4.0,65,0.00,,,0.00,0,Wunderground v.1.15,2013-05-18 17:02:00,
2013-05-18 13:07:00,64.1,52.1,30.28,SE,138,0.0,6.0,65,0.00,,,0.00,0,Wunderground v.1.15,2013-05-18 17:07:00,
2013-05-18 13:12:00,64.0,51.6,30.28,SE,133,1.0,6.0,64,0.00,,,0.00,0,Wunderground v.1.15,2013-05-18 17:12:00,
2013-05-18 13:17:00,63.9,51.5,30.28,SSE,157,3.0,9.0,64,0.00,,,0.00,0,Wunderground v.1.15,2013-05-18 17:17:00,
2013-05-18 13:22:00,63.9,51.9,30.28,SE,125,3.0,5.0,65,0.00,,,0.00,0,Wunderground v.1.15,2013-05-18 17:22:00,
2013-05-18 13:27:00,63.7,51.3,30.28,ESE,121,2.0,6.0,64,0.00,,,0.00,0,Wunderground v.1.15,2013-05-18 17:27:00,
2013-05-18 13:32:00,63.3,50.9,30.28,SE,137,3.0,7.0,64,0.00,,,0.00,0,Wunderground v.1.15,2013-05-18 17:32:00,
2013-05-18 13:37:00,63.6,52.0,30.28,SSE,149,1.0,7.0,66,0.00,,,0.00,0,Wunderground v.1.15,2013-05-18 17:37:00,
2013-05-18 13:42:00,64.3,52.3,30.28,SE,141,1.0,5.0,65,0.00,,,0.00,0,Wunderground v.1.15,2013-05-18 17:42:00,
2013-05-18 13:47:00,65.4,52.5,30.28,ESE,123,2.0,5.0,63,0.00,,,0.00,0,Wunderground v.1.15,2013-05-18 17:47:00,
2013-05-18 13:52:00,65.8,52.4,30.28,East,88,5.0,5.0,62,0.00,,,0.00,0,Wunderground v.1.15,2013-05-18 17:52:00,
2013-05-18 13:57:00,65.3,51.5,30.28,ESE,119,4.0,8.0,61,0.00,,,0.00,0,Wunderground v.1.15,2013-05-18 17:57:00,
2013-05-18 14:02:00,64.9,51.6,30.28,SE,132,4.0,8.0,62,0.00,,,0.00,0,Wunderground v.1.15,2013-05-18 18:02:00,
2013-05-18 14:07:00,64.6,51.7,30.28,SE,146,3.0,8.0,63,0.00,,,0.00,0,Wunderground v.1.15,2013-05-18 18:07:00,
2013-05-18 14:12:00,64.6,52.1,30.28,SSE,161,1.0,3.0,64,0.00,,,0.00,0,Wunderground v.1.15,2013-05-18 18:12:00,
2013-05-18 14:17:00,64.8,52.3,30.28,SE,128,2.0,4.0,64,0.00,,,0.00,0,Wunderground v.1.15,2013-05-18 18:17:00,
2013-05-18 14:22:00,64.6,52.1,30.28,ESE,120,5.0,5.0,64,0.00,,,0.00,0,Wunderground v.1.15,2013-05-18 18:22:00,
2013-05-18 14:27:00,64.3,51.9,30.28,ESE,122,0.0,6.0,64,0.00,,,0.00,0,Wunderground v.1.15,2013-05-18 18:27:00,
2013-05-18 14:33:00,64.5,52.0,30.28,East,94,2.0,4.0,64,0.00,,,0.00,0,Wunderground v.1.15,2013-05-18 18:33:00,
2013-05-18 14:38:00,64.3,51.9,30.28,SE,142,1.0,7.0,64,0.00,,,0.00,0,Wunderground v.1.15,2013-05-18 18:38:00,
2013-05-18 14:43:00,64.4,52.4,30.28,SSE,150,0.0,4.0,65,0.00,,,0.00,0,Wunderground v.1.15,2013-05-18 18:43:00,
2013-05-18 14:48:00,64.3,51.9,30.28,SE,142,3.0,6.0,64,0.00,,,0.00,0,Wunderground v.1.15,2013-05-18 18:48:00,
2013-05-18 14:53:00,64.3,52.3,30.28,East,91,0.0,6.0,65,0.00,,,0.00,0,Wunderground v.1.15,2013-05-18 18:53:00,
2013-05-18 14:58:00,64.2,52.2,30.28,ESE,105,2.0,6.0,65,0.00,,,0.00,0,Wunderground v.1.15,2013-05-18 18:58:00,
2013-05-18 15:03:00,64.1,52.1,30.28,ESE,106,1.0,3.0,65,0.00,,,0.00,0,Wunderground v.1.15,2013-05-18 19:03:00,
2013-05-18 15:08:00,64.6,52.6,30.28,ESE,105,2.0,3.0,65,0.00,,,0.00,0,Wunderground v.1.15,2013-05-18 19:08:00,
2013-05-18 15:13:00,64.7,52.2,30.28,East,101,1.0,3.0,64,0.00,,,0.00,0,Wunderground v.1.15,2013-05-18 19:13:00,
2013-05-18 15:18:00,64.9,52.8,30.28,East,98,1.0,4.0,65,0.00,,,0.00,0,Wunderground v.1.15,2013-05-18 19:18:00,
2013-05-18 15:23:00,64.7,52.7,30.28,ESE,114,3.0,5.0,65,0.00,,,0.00,0,Wunderground v.1.15,2013-05-18 19:23:00,
2013-05-18 15:28:00,64.2,52.2,30.28,ESE,117,1.0,6.0,65,0.00,,,0.00,0,Wunderground v.1.15,2013-05-18 19:28:00,
2013-05-18 15:33:00,64.4,52.4,30.28,ESE,112,1.0,3.0,65,0.00,,,0.00,0,Wunderground v.1.15,2013-05-18 19:33:00,
2013-05-18 15:38:00,64.2,52.2,30.28,ESE,111,0.0,5.0,65,0.00,,,0.00,0,Wunderground v.1.15,2013-05-18 19:38:00,
2013-05-18 15:43:00,64.1,52.1,30.28,ESE,111,5.0,5.0,65,0.00,,,0.00,0,Wunderground v.1.15,2013-05-18 19:43:00,
2013-05-18 15:48:00,63.6,51.6,30.28,ESE,113,0.0,5.0,65,0.00,,,0.00,0,Wunderground v.1.15,2013-05-18 19:48:00,
2013-05-18 15:52:00,63.3,51.3,30.28,ESE,113,1.0,4.0,65,0.00,,,0.00,0,Wunderground v.1.15,2013-05-18 19:52:00,
2013-05-18 15:57:00,63.5,51.9,30.28,ESE,112,1.0,5.0,66,0.00,,,0.00,0,Wunderground v.1.15,2013-05-18 19:57:00,
2013-05-18 16:03:00,63.5,51.5,30.28,ESE,119,0.0,5.0,65,0.00,,,0.00,0,Wunderground v.1.15,2013-05-18 20:03:00,
2013-05-18 16:08:00,63.2,51.6,30.28,ESE,113,2.0,5.0,66,0.00,,,0.00,0,Wunderground v.1.15,2013-05-18 20:08:00,
2013-05-18 16:13:00,63.0,51.5,30.29,ESE,105,1.0,4.0,66,0.00,,,0.00,0,Wunderground v.1.15,2013-05-18 20:13:00,
2013-05-18 16:18:00,63.0,51.5,30.29,ESE,104,0.0,4.0,66,0.00,,,0.00,0,Wunderground v.1.15,2013-05-18 20:18:00,
2013-05-18 16:23:00,63.0,51.5,30.29,ESE,104,0.0,2.0,66,0.00,,,0.00,0,Wunderground v.1.15,2013-05-18 20:23:00,
2013-05-18 16:28:00,62.6,51.5,30.29,ESE,104,0.0,4.0,67,0.00,,,0.00,0,Wunderground v.1.15,2013-05-18 20:28:00,
2013-05-18 16:34:00,62.2,51.1,30.29,ESE,121,0.0,6.0,67,0.00,,,0.00,0,Wunderground v.1.15,2013-05-18 20:34:00,
2013-05-18 16:39:00,61.7,50.6,30.29,ESE,120,0.0,6.0,67,0.00,,,0.00,0,Wunderground v.1.15,2013-05-18 20:39:00,
2013-05-18 16:44:00,61.6,50.9,30.30,ESE,120,2.0,3.0,68,0.00,,,0.00,0,Wunderground v.1.15,2013-05-18 20:44:00,
2013-05-18 16:49:00,61.4,51.1,30.30,ESE,119,2.0,4.0,69,0.00,,,0.00,0,Wunderground v.1.15,2013-05-18 20:49:00,
2013-05-18 16:54:00,61.2,51.3,30.29,ESE,119,0.0,2.0,70,0.00,,,0.00,0,Wunderground v.1.15,2013-05-18 20:54:00,
2013-05-18 16:59:00,61.2,51.7,30.29,ESE,119,1.0,3.0,71,0.00,,,0.00,0,Wunderground v.1.15,2013-05-18 20:59:00,
2013-05-18 17:04:00,61.0,51.1,30.29,ESE,119,0.0,4.0,70,0.00,,,0.00,0,Wunderground v.1.15,2013-05-18 21:04:00,
2013-05-18 17:09:00,60.9,51.0,30.29,ESE,121,1.0,5.0,70,0.00,,,0.00,0,Wunderground v.1.15,2013-05-18 21:09:00,
2013-05-18 17:14:00,60.8,51.0,30.29,ESE,120,0.0,2.0,70,0.00,,,0.00,0,Wunderground v.1.15,2013-05-18 21:14:00,
2013-05-18 17:19:00,60.8,51.3,30.29,ESE,121,0.0,3.0,71,0.00,,,0.00,0,Wunderground v.1.15,2013-05-18 21:19:00,
2013-05-18 17:24:00,60.9,51.4,30.29,East,95,1.0,6.0,71,0.00,,,0.00,0,Wunderground v.1.15,2013-05-18 21:24:00,
2013-05-18 17:29:00,60.6,51.1,30.28,East,95,0.0,6.0,71,0.00,,,0.00,0,Wunderground v.1.15,2013-05-18 21:29:00,
2013-05-18 17:35:00,60.3,51.2,30.29,East,95,0.0,3.0,72,0.00,,,0.00,0,Wunderground v.1.15,2013-05-18 21:35:00,
2013-05-18 17:39:00,60.2,51.1,30.29,East,95,0.0,3.0,72,0.00,,,0.00,0,Wunderground v.1.15,2013-05-18 21:39:00,
2013-05-18 17:44:00,60.0,50.9,30.29,East,94,0.0,2.0,72,0.00,,,0.00,0,Wunderground v.1.15,2013-05-18 21:44:00,
2013-05-18 17:49:00,59.8,50.8,30.28,East,94,0.0,4.0,72,0.00,,,0.00,0,Wunderground v.1.15,2013-05-18 21:49:00,
2013-05-18 17:54:00,59.7,51.0,30.29,East,93,3.0,3.0,73,0.00,,,0.00,0,Wunderground v.1.15,2013-05-18 21:54:00,
2013-05-18 17:59:00,59.7,51.0,30.28,East,93,0.0,3.0,73,0.00,,,0.00,0,Wunderground v.1.15,2013-05-18 21:59:00,
2013-05-18 18:04:00,59.7,51.0,30.29,East,93,1.0,4.0,73,0.00,,,0.00,0,Wunderground v.1.15,2013-05-18 22:04:00,
2013-05-18 18:09:00,59.6,50.9,30.28,East,93,0.0,4.0,73,0.00,,,0.00,0,Wunderground v.1.15,2013-05-18 22:09:00,
2013-05-18 18:14:00,59.5,50.8,30.29,East,92,0.0,2.0,73,0.00,,,0.00,0,Wunderground v.1.15,2013-05-18 22:14:00,
2013-05-18 18:19:00,59.5,51.2,30.29,East,92,0.0,3.0,74,0.00,,,0.00,0,Wunderground v.1.15,2013-05-18 22:19:00,
2013-05-18 18:24:00,59.5,51.6,30.28,East,92,0.0,1.0,75,0.00,,,0.00,0,Wunderground v.1.15,2013-05-18 22:24:00,
2013-05-18 18:30:00,59.5,51.6,30.28,East,92,1.0,1.0,75,0.00,,,0.00,0,Wunderground v.1.15,2013-05-18 22:30:00,
2013-05-18 18:35:00,59.2,51.3,30.28,East,92,0.0,2.0,75,0.00,,,0.00,0,Wunderground v.1.15,2013-05-18 22:35:00,
2013-05-18 18:40:00,59.2,51.3,30.29,East,92,0.0,0.0,75,0.00,,,0.00,0,Wunderground v.1.15,2013-05-18 22:40:00,
2013-05-18 18:45:00,59.2,51.6,30.29,East,89,0.0,3.0,76,0.00,,,0.00,0,Wunderground v.1.15,2013-05-18 22:45:00,
2013-05-18 18:50:00,59.1,51.5,30.29,East,89,4.0,4.0,76,0.00,,,0.00,0,Wunderground v.1.15,2013-05-18 22:50:00,
2013-05-18 18:55:00,58.8,51.2,30.28,East,89,2.0,5.0,76,0.00,,,0.00,0,Wunderground v.1.15,2013-05-18 22:55:00,
2013-05-18 19:00:00,58.7,51.5,30.28,East,88,0.0,0.0,77,0.00,,,0.00,0,Wunderground v.1.15,2013-05-18 23:00:00,
2013-05-18 19:05:00,58.6,51.4,30.29,East,88,0.0,3.0,77,0.00,,,0.00,0,Wunderground v.1.15,2013-05-18 23:05:00,
2013-05-18 19:10:00,58.7,51.5,30.29,East,89,0.0,0.0,77,0.00,,,0.00,0,Wunderground v.1.15,2013-05-18 23:10:00,
2013-05-18 19:15:00,58.6,51.4,30.29,East,88,0.0,5.0,77,0.00,,,0.00,0,Wunderground v.1.15,2013-05-18 23:15:00,
2013-05-18 19:20:00,58.6,51.4,30.29,East,88,0.0,0.0,77,0.00,,,0.00,0,Wunderground v.1.15,2013-05-18 23:20:00,
2013-05-18 19:25:00,58.6,51.8,30.28,East,88,1.0,3.0,78,0.00,,,0.00,0,Wunderground v.1.15,2013-05-18 23:25:00,
2013-05-18 19:30:00,58.5,51.7,30.29,East,87,2.0,3.0,78,0.00,,,0.00,0,Wunderground v.1.15,2013-05-18 23:30:00,
2013-05-18 19:35:00,58.5,51.7,30.30,East,87,0.0,3.0,78,0.00,,,0.00,0,Wunderground v.1.15,2013-05-18 23:35:00,
2013-05-18 19:40:00,58.6,51.8,30.29,East,88,0.0,0.0,78,0.00,,,0.00,0,Wunderground v.1.15,2013-05-18 23:40:00,
2013-05-18 19:45:00,58.5,51.7,30.29,East,88,4.0,4.0,78,0.00,,,0.00,0,Wunderground v.1.15,2013-05-18 23:45:00,
2013-05-18 19:50:00,58.5,51.7,30.29,East,88,0.0,1.0,78,0.00,,,0.00,0,Wunderground v.1.15,2013-05-18 23:50:00,
2013-05-18 19:55:00,58.4,51.9,30.29,East,87,3.0,4.0,79,0.00,,,0.00,0,Wunderground v.1.15,2013-05-18 23:55:00,
2013-05-18 20:00:00,58.4,51.9,30.28,East,88,2.0,2.0,79,0.00,,,0.00,0,Wunderground v.1.15,2013-05-19 00:00:00,
2013-05-18 20:05:00,58.3,51.8,30.28,East,95,0.0,5.0,79,0.00,,,0.00,0,Wunderground v.1.15,2013-05-19 00:05:00,
2013-05-18 20:10:00,58.1,51.6,30.28,SSE,161,3.0,4.0,79,0.00,,,0.00,0,Wunderground v.1.15,2013-05-19 00:10:00,
2013-05-18 20:15:00,58.0,51.5,30.29,SSE,159,0.0,4.0,79,0.00,,,0.00,0,Wunderground v.1.15,2013-05-19 00:15:00,
2013-05-18 20:20:00,58.0,51.9,30.28,SSE,150,1.0,3.0,80,0.00,,,0.00,0,Wunderground v.1.15,2013-05-19 00:20:00,
2013-05-18 20:25:00,57.8,51.7,30.29,SSE,150,2.0,4.0,80,0.00,,,0.00,0,Wunderground v.1.15,2013-05-19 00:25:00,
2013-05-18 20:30:00,57.7,51.9,30.28,SE,144,5.0,6.0,81,0.00,,,0.00,0,Wunderground v.1.15,2013-05-19 00:30:00,
2013-05-18 20:35:00,57.7,51.9,30.28,SE,127,2.0,8.0,81,0.00,,,0.00,0,Wunderground v.1.15,2013-05-19 00:35:00,
2013-05-18 20:40:00,57.6,51.8,30.28,SE,126,2.0,3.0,81,0.00,,,0.00,0,Wunderground v.1.15,2013-05-19 00:40:00,
2013-05-18 20:45:00,57.6,51.8,30.28,ESE,103,0.0,5.0,81,0.00,,,0.00,0,Wunderground v.1.15,2013-05-19 00:45:00,
2013-05-18 20:50:00,57.6,51.8,30.29,ESE,106,1.0,4.0,81,0.00,,,0.00,0,Wunderground v.1.15,2013-05-19 00:50:00,
2013-05-18 20:55:00,57.5,51.7,30.29,ESE,108,4.0,5.0,81,0.00,,,0.00,0,Wunderground v.1.15,2013-05-19 00:55:00,
2013-05-18 21:00:00,57.6,52.1,30.28,ESE,109,1.0,1.0,82,0.00,,,0.00,0,Wunderground v.1.15,2013-05-19 01:00:00,
2013-05-18 21:05:00,57.6,52.1,30.29,ESE,108,1.0,4.0,82,0.00,,,0.00,0,Wunderground v.1.15,2013-05-19 01:05:00,
2013-05-18 21:10:00,57.6,52.1,30.29,ESE,110,1.0,4.0,82,0.00,,,0.00,0,Wunderground v.1.15,2013-05-19 01:10:00,
2013-05-18 21:15:00,57.5,52.0,30.29,ESE,110,2.0,4.0,82,0.00,,,0.00,0,Wunderground v.1.15,2013-05-19 01:15:00,
2013-05-18 21:20:00,57.5,52.0,30.30,SSE,156,2.0,2.0,82,0.00,,,0.00,0,Wunderground v.1.15,2013-05-19 01:20:00,
2013-05-18 21:25:00,57.5,52.0,30.29,SE,133,3.0,10.0,82,0.00,,,0.00,0,Wunderground v.1.15,2013-05-19 01:25:00,
2013-05-18 21:30:00,57.5,52.0,30.29,SE,133,1.0,3.0,82,0.00,,,0.00,0,Wunderground v.1.15,2013-05-19 01:30:00,
2013-05-18 21:35:00,57.5,52.0,30.29,SE,140,1.0,5.0,82,0.00,,,0.00,0,Wunderground v.1.15,2013-05-19 01:35:00,
2013-05-18 21:40:00,57.5,52.0,30.29,South,170,2.0,3.0,82,0.00,,,0.00,0,Wunderground v.1.15,2013-05-19 01:40:00,
2013-05-18 21:45:00,57.4,51.9,30.29,SE,125,2.0,6.0,82,0.00,,,0.00,0,Wunderground v.1.15,2013-05-19 01:45:00,
2013-05-18 21:50:00,57.3,51.9,30.30,ESE,118,2.0,5.0,82,0.00,,,0.00,0,Wunderground v.1.15,2013-05-19 01:50:00,
2013-05-18 21:55:00,57.3,51.9,30.29,SE,142,4.0,5.0,82,0.00,,,0.00,0,Wunderground v.1.15,2013-05-19 01:55:00,
2013-05-18 22:00:00,57.4,51.6,30.29,East,80,2.0,3.0,81,0.00,,,0.00,0,Wunderground v.1.15,2013-05-19 02:00:00,
2013-05-18 22:06:00,57.3,51.5,30.29,ESE,107,1.0,6.0,81,0.00,,,0.00,0,Wunderground v.1.15,2013-05-19 02:06:00,
2013-05-18 22:11:00,57.3,51.5,30.29,SSE,160,3.0,7.0,81,0.00,,,0.00,0,Wunderground v.1.15,2013-05-19 02:11:00,
2013-05-18 22:16:00,57.3,51.5,30.29,SE,146,3.0,7.0,81,0.00,,,0.00,0,Wunderground v.1.15,2013-05-19 02:16:00,
2013-05-18 22:21:00,57.3,51.5,30.29,ESE,122,1.0,2.0,81,0.00,,,0.00,0,Wunderground v.1.15,2013-05-19 02:21:00,
2013-05-18 22:26:00,57.3,51.5,30.29,South,170,2.0,6.0,81,0.00,,,0.00,0,Wunderground v.1.15,2013-05-19 02:26:00,
2013-05-18 22:31:00,57.3,51.5,30.30,South,170,0.0,2.0,81,0.00,,,0.00,0,Wunderground v.1.15,2013-05-19 02:31:00,
2013-05-18 22:36:00,57.0,51.2,30.29,SSE,167,1.0,5.0,81,0.00,,,0.00,0,Wunderground v.1.15,2013-05-19 02:36:00,
2013-05-18 22:41:00,57.0,51.2,30.29,SE,136,3.0,6.0,81,0.00,,,0.00,0,Wunderground v.1.15,2013-05-19 02:41:00,
2013-05-18 22:46:00,56.9,51.1,30.29,ESE,115,0.0,6.0,81,0.00,,,0.00,0,Wunderground v.1.15,2013-05-19 02:46:00,
2013-05-18 22:51:00,56.8,51.4,30.29,SSE,151,5.0,8.0,82,0.00,,,0.00,0,Wunderground v.1.15,2013-05-19 02:51:00,
2013-05-18 22:56:00,56.8,51.4,30.29,SSE,149,4.0,8.0,82,0.00,,,0.00,0,Wunderground v.1.15,2013-05-19 02:56:00,
2013-05-18 23:01:00,56.8,51.4,30.29,ESE,109,3.0,3.0,82,0.00,,,0.00,0,Wunderground v.1.15,2013-05-19 03:01:00,
2013-05-18 23:06:00,56.7,51.3,30.29,SE,145,7.0,9.0,82,0.00,,,0.00,0,Wunderground v.1.15,2013-05-19 03:06:00,
2013-05-18 23:11:00,56.7,51.3,30.28,SSE,154,7.0,7.0,82,0.00,,,0.00,0,Wunderground v.1.15,2013-05-19 03:11:00,
2013-05-18 23:16:00,56.7,51.3,30.29,SSW,205,4.0,11.0,82,0.00,,,0.00,0,Wunderground v.1.15,2013-05-19 03:16:00,
2013-05-18 23:21:00,56.7,51.3,30.28,East,100,2.0,6.0,82,0.00,,,0.00,0,Wunderground v.1.15,2013-05-19 03:21:00,
2013-05-18 23:26:00,56.5,51.1,30.28,ESE,109,3.0,10.0,82,0.00,,,0.00,0,Wunderground v.1.15,2013-05-19 03:26:00,
2013-05-18 23:31:00,56.5,51.4,30.28,ESE,122,2.0,4.0,83,0.00,,,0.00,0,Wunderground v.1.15,2013-05-19 03:31:00,
2013-05-18 23:36:00,56.5,51.4,30.28,ESE,121,2.0,10.0,83,0.00,,,0.00,0,Wunderground v.1.15,2013-05-19 03:36:00,
2013-05-18 23:41:00,56.5,51.4,30.28,SSE,155,3.0,4.0,83,0.00,,,0.00,0,Wunderground v.1.15,2013-05-19 03:41:00,
2013-05-18 23:46:00,56.5,51.4,30.28,SSE,148,5.0,10.0,83,0.00,,,0.00,0,Wunderground v.1.15,2013-05-19 03:46:00,
2013-05-18 23:51:00,56.7,51.6,30.28,SE,130,3.0,6.0,83,0.00,,,0.00,0,Wunderground v.1.15,2013-05-19 03:51:00,
2013-05-18 23:56:00,56.7,51.6,30.28,SE,125,3.0,6.0,83,0.00,,,0.00,0,Wunderground v.1.15,2013-05-19 03:56:00,